Time;durP1;ratioP1;P1;durP2;ratioP2;P2;SDS_P1;SDS_P2;PMS_P1;PMS_P2;Temp;Humidity;BMP_temperature;BMP_pressure;BME280_temperature;BME280_humidity;BME280_pressure;Samples;Min_cycle;Max_cycle;Signal;HPM_P1;HPM_P2
2023/05/16 00:01:48;;;;;;;10.45;1.70;;;10.30;99.90;;;;;;5037866;28;20496;-64
2023/05/16 00:04:17;;;;;;;9.07;1.95;;;10.20;99.90;;;;;;5025753;28;20352;-64
2023/05/16 00:06:44;;;;;;;7.20;1.97;;;10.20;99.90;;;;;;5007959;28;20908;-64
2023/05/16 00:09:10;;;;;;;4.95;1.80;;;10.20;99.90;;;;;;5035971;28;20573;-64
2023/05/16 00:11:37;;;;;;;4.40;1.90;;;10.20;99.90;;;;;;5025391;28;20231;-64
2023/05/16 00:14:04;;;;;;;10.73;2.45;;;10.20;99.90;;;;;;5023213;28;20201;-64
2023/05/16 00:16:31;;;;;;;10.45;2.13;;;10.20;99.90;;;;;;5026381;28;20688;-64
2023/05/16 00:18:58;;;;;;;6.97;1.60;;;10.20;99.90;;;;;;5023953;28;20305;-64
2023/05/16 00:21:26;;;;;;;5.97;1.70;;;10.10;99.90;;;;;;5018312;28;20264;-64
2023/05/16 00:23:53;;;;;;;6.10;1.80;;;10.10;99.90;;;;;;5024538;28;20233;-64
2023/05/16 00:26:20;;;;;;;7.37;2.13;;;10.10;99.90;;;;;;5037245;28;20220;-64
2023/05/16 00:28:47;;;;;;;10.50;2.00;;;10.20;99.90;;;;;;5018680;28;20234;-64
2023/05/16 00:31:14;;;;;;;5.90;1.63;;;10.10;99.90;;;;;;5029564;28;20204;-64
2023/05/16 00:33:40;;;;;;;4.88;1.42;;;10.10;99.90;;;;;;5018015;28;20208;-64
2023/05/16 00:36:08;;;;;;;4.10;1.67;;;10.20;99.90;;;;;;5035554;28;20221;-64
2023/05/16 00:38:36;;;;;;;10.40;2.30;;;10.10;99.90;;;;;;4998929;28;20963;-64
2023/05/16 00:41:03;;;;;;;9.63;2.83;;;10.10;99.90;;;;;;5027272;28;20208;-64
2023/05/16 00:43:30;;;;;;;4.60;1.53;;;10.10;99.90;;;;;;5026320;28;20574;-64
2023/05/16 00:45:57;;;;;;;6.47;1.57;;;10.10;99.90;;;;;;5022939;28;20228;-64
2023/05/16 00:48:24;;;;;;;8.70;2.20;;;10.10;99.90;;;;;;5021402;28;20201;-64
2023/05/16 00:50:52;;;;;;;5.70;1.53;;;10.10;99.90;;;;;;5026440;28;20197;-64
2023/05/16 00:53:19;;;;;;;10.97;1.77;;;10.10;99.90;;;;;;5004182;28;20212;-64
2023/05/16 00:55:47;;;;;;;4.40;1.83;;;10.10;99.90;;;;;;5033193;28;20197;-64
2023/05/16 00:58:14;;;;;;;5.53;1.63;;;10.10;99.90;;;;;;5036503;28;20290;-64
2023/05/16 01:00:42;;;;;;;7.07;1.77;;;10.10;99.90;;;;;;5022880;28;20596;-64
2023/05/16 01:03:09;;;;;;;5.97;1.77;;;10.20;99.90;;;;;;5036946;28;22098;-64
2023/05/16 01:05:36;;;;;;;5.50;1.53;;;10.10;99.90;;;;;;5033778;28;21053;-64
2023/05/16 01:08:03;;;;;;;5.38;1.83;;;10.10;99.90;;;;;;5039324;28;20674;-63
2023/05/16 01:10:40;;;;;;;12.68;2.47;;;10.20;99.90;;;;;;5008642;28;20205;-64
2023/05/16 01:13:17;;;;;;;5.07;1.52;;;10.10;99.90;;;;;;5039889;28;20348;-63
2023/05/16 01:15:48;;;;;;;7.20;2.07;;;10.00;99.90;;;;;;5028381;28;20203;-64
2023/05/16 01:18:24;;;;;;;7.78;1.83;;;10.10;99.90;;;;;;5034991;28;20205;-64
2023/05/16 01:20:59;;;;;;;11.77;3.07;;;10.00;99.90;;;;;;5026736;28;20212;-64
2023/05/16 01:23:42;;;;;;;14.47;2.70;;;10.00;99.90;;;;;;5038772;28;20827;-63
2023/05/16 01:26:15;;;;;;;8.70;2.17;;;10.00;99.90;;;;;;5024081;28;21089;-64
2023/05/16 01:28:44;;;;;;;7.93;2.33;;;10.00;99.90;;;;;;5030384;28;20942;-63
2023/05/16 01:31:10;;;;;;;9.23;2.37;;;10.00;99.90;;;;;;5007022;28;20797;-64
2023/05/16 01:33:37;;;;;;;5.47;2.00;;;10.00;99.90;;;;;;5036736;28;20212;-64
2023/05/16 01:36:12;;;;;;;6.37;2.17;;;10.00;99.90;;;;;;5026864;28;20773;-64
2023/05/16 01:38:42;;;;;;;9.93;2.43;;;10.00;99.90;;;;;;5043710;28;20199;-64
2023/05/16 01:41:17;;;;;;;8.60;1.73;;;9.90;99.90;;;;;;5023142;28;20634;-64
2023/05/16 01:43:46;;;;;;;9.70;2.57;;;10.00;99.90;;;;;;5043558;28;20200;-64
2023/05/16 01:46:16;;;;;;;9.27;2.40;;;10.00;99.90;;;;;;5032739;28;20224;-63
2023/05/16 01:48:52;;;;;;;10.57;2.40;;;10.00;99.90;;;;;;5033742;28;20569;-63
2023/05/16 01:51:21;;;;;;;11.90;3.33;;;10.00;99.90;;;;;;5014549;28;20766;-64
2023/05/16 01:53:49;;;;;;;7.93;2.13;;;10.00;99.90;;;;;;5038428;28;20298;-64
2023/05/16 01:56:20;;;;;;;16.00;2.27;;;9.90;99.90;;;;;;5005272;28;20237;-64
2023/05/16 01:58:49;;;;;;;9.77;2.40;;;9.90;99.90;;;;;;5037698;28;20205;-64
2023/05/16 02:01:16;;;;;;;12.67;2.23;;;9.90;99.90;;;;;;5039356;28;20211;-64
2023/05/16 02:03:43;;;;;;;12.87;2.40;;;9.90;99.90;;;;;;5029509;28;20201;-64
2023/05/16 02:06:10;;;;;;;9.83;2.10;;;9.90;99.90;;;;;;5031400;28;20741;-63
2023/05/16 02:08:37;;;;;;;14.60;2.43;;;9.80;99.90;;;;;;5038521;28;20205;-64
2023/05/16 02:11:03;;;;;;;10.17;1.90;;;9.80;99.90;;;;;;5002968;28;20422;-63
2023/05/16 02:13:32;;;;;;;12.57;3.00;;;9.80;99.90;;;;;;5032149;28;20328;-63
2023/05/16 02:15:58;;;;;;;16.23;2.87;;;9.80;99.90;;;;;;5040530;28;20215;-64
2023/05/16 02:18:27;;;;;;;12.27;2.53;;;9.70;99.90;;;;;;5015047;28;20615;-64
2023/05/16 02:20:53;;;;;;;10.57;2.70;;;9.70;99.90;;;;;;5033955;28;20197;-64
2023/05/16 02:23:20;;;;;;;11.73;2.30;;;9.60;99.90;;;;;;5023624;28;20679;-63
2023/05/16 02:25:47;;;;;;;13.70;1.77;;;9.60;99.90;;;;;;5001717;28;20831;-63
2023/05/16 02:28:14;;;;;;;11.47;2.47;;;9.60;99.90;;;;;;5026712;28;20693;-64
2023/05/16 02:30:42;;;;;;;13.30;1.80;;;9.60;99.90;;;;;;5035412;28;20229;-63
2023/05/16 02:33:09;;;;;;;12.63;2.60;;;9.60;99.90;;;;;;5035425;28;20988;-64
2023/05/16 02:35:36;;;;;;;6.23;2.17;;;9.50;99.90;;;;;;5024553;28;20669;-64
2023/05/16 02:38:03;;;;;;;7.27;1.90;;;9.50;99.90;;;;;;5020979;28;20212;-64
2023/05/16 02:40:29;;;;;;;14.30;2.87;;;9.50;99.90;;;;;;4991156;28;20368;-64
2023/05/16 02:42:56;;;;;;;8.77;2.27;;;9.40;99.90;;;;;;5034697;28;20676;-63
2023/05/16 02:45:23;;;;;;;13.07;3.10;;;9.40;99.90;;;;;;5006876;28;20217;-64
2023/05/16 02:47:51;;;;;;;13.27;2.07;;;9.30;99.90;;;;;;5032485;28;20204;-64
2023/05/16 02:50:18;;;;;;;11.83;2.30;;;9.30;99.90;;;;;;5015021;28;20678;-64
2023/05/16 02:52:46;;;;;;;15.07;2.10;;;9.30;99.90;;;;;;5022190;28;20205;-64
2023/05/16 02:55:12;;;;;;;8.07;2.13;;;9.20;99.90;;;;;;5029011;28;20201;-64
2023/05/16 02:57:39;;;;;;;18.37;2.73;;;9.20;99.90;;;;;;5003071;28;20525;-64
2023/05/16 03:00:10;;;;;;;7.77;2.00;;;9.20;99.90;;;;;;5022560;28;20299;-64
2023/05/16 03:02:37;;;;;;;9.10;1.97;;;9.10;99.90;;;;;;5026100;28;21547;-63
2023/05/16 03:05:06;;;;;;;12.97;2.93;;;9.10;99.90;;;;;;5016305;28;20608;-63
2023/05/16 03:07:33;;;;;;;9.63;2.13;;;9.10;99.90;;;;;;5031077;28;20283;-64
2023/05/16 03:10:00;;;;;;;8.97;2.00;;;9.10;99.90;;;;;;5030860;28;20224;-64
2023/05/16 03:12:26;;;;;;;8.03;1.60;;;9.00;99.90;;;;;;5010955;28;20220;-63
2023/05/16 03:14:53;;;;;;;12.43;1.97;;;9.00;99.90;;;;;;5023217;28;20398;-63
2023/05/16 03:17:20;;;;;;;13.37;2.07;;;8.90;99.90;;;;;;5020121;28;20216;-64
2023/05/16 03:19:47;;;;;;;13.43;2.17;;;9.00;99.90;;;;;;5033879;28;20193;-63
2023/05/16 03:22:15;;;;;;;7.27;1.43;;;8.90;99.90;;;;;;5021881;28;20735;-63
2023/05/16 03:24:42;;;;;;;12.37;2.17;;;8.90;99.90;;;;;;5026668;28;20607;-63
2023/05/16 03:27:08;;;;;;;7.47;1.80;;;8.90;99.90;;;;;;5034383;28;20721;-64
2023/05/16 03:29:35;;;;;;;6.70;2.30;;;8.80;99.90;;;;;;4998443;28;20205;-63
2023/05/16 03:32:02;;;;;;;10.33;1.87;;;8.80;99.90;;;;;;5020367;28;20672;-63
2023/05/16 03:34:29;;;;;;;8.03;2.03;;;8.70;99.90;;;;;;5033522;28;20690;-63
2023/05/16 03:36:56;;;;;;;8.17;1.87;;;8.60;99.90;;;;;;5021294;28;21487;-63
2023/05/16 03:39:24;;;;;;;10.50;2.20;;;8.60;99.90;;;;;;5026220;28;20209;-63
2023/05/16 03:41:54;;;;;;;14.43;1.93;;;8.50;99.90;;;;;;5035248;28;20843;-64
2023/05/16 03:44:21;;;;;;;13.00;1.70;;;8.50;99.90;;;;;;5007480;28;20347;-63
2023/05/16 03:46:50;;;;;;;7.10;1.87;;;8.40;99.90;;;;;;5028500;28;20664;-63
2023/05/16 03:49:17;;;;;;;9.93;1.73;;;8.40;99.90;;;;;;5024928;28;20253;-63
2023/05/16 03:51:44;;;;;;;8.93;2.40;;;8.30;99.90;;;;;;4998413;28;20220;-63
2023/05/16 03:54:10;;;;;;;7.43;1.80;;;8.30;99.90;;;;;;4998075;28;20197;-63
2023/05/16 03:56:38;;;;;;;7.63;2.27;;;8.30;99.90;;;;;;5004142;28;21532;-63
2023/05/16 03:59:05;;;;;;;10.83;2.10;;;8.20;99.90;;;;;;5004995;28;20228;-63
2023/05/16 04:01:32;;;;;;;14.90;2.20;;;8.10;99.90;;;;;;4995692;28;20239;-63
2023/05/16 04:03:59;;;;;;;12.30;2.27;;;8.10;99.90;;;;;;5036669;28;20569;-63
2023/05/16 04:06:26;;;;;;;12.77;1.97;;;8.10;99.90;;;;;;5038844;28;20586;-63
2023/05/16 04:08:52;;;;;;;8.47;1.90;;;8.10;99.90;;;;;;5022171;28;20880;-63
2023/05/16 04:11:20;;;;;;;10.53;1.70;;;8.10;99.90;;;;;;5013873;28;20212;-63
2023/05/16 04:13:48;;;;;;;12.17;2.20;;;8.10;99.90;;;;;;5025662;28;20406;-63
2023/05/16 04:16:15;;;;;;;14.83;1.63;;;8.10;99.90;;;;;;5004326;28;20220;-63
2023/05/16 04:18:42;;;;;;;9.37;2.07;;;8.10;99.90;;;;;;5033654;28;20227;-63
2023/05/16 04:21:13;;;;;;;13.87;2.40;;;8.20;99.90;;;;;;5021854;28;20224;-63
2023/05/16 04:23:40;;;;;;;6.13;1.80;;;8.10;99.90;;;;;;5021230;28;20238;-63
2023/05/16 04:26:07;;;;;;;12.00;2.60;;;8.20;99.90;;;;;;5014192;28;20235;-63
2023/05/16 04:28:34;;;;;;;10.93;1.73;;;8.20;99.90;;;;;;5026681;28;21647;-63
2023/05/16 04:31:02;;;;;;;9.53;1.60;;;8.10;99.90;;;;;;4989626;28;21986;-64
2023/05/16 04:33:29;;;;;;;10.47;1.97;;;8.20;99.90;;;;;;5025278;28;20686;-63
2023/05/16 04:35:57;;;;;;;6.93;1.83;;;8.10;99.90;;;;;;5023942;28;20209;-63
2023/05/16 04:38:24;;;;;;;14.40;2.00;;;8.10;99.90;;;;;;5036688;28;20657;-63
2023/05/16 04:40:51;;;;;;;8.37;1.70;;;8.10;99.90;;;;;;5023439;28;20198;-63
2023/05/16 04:43:18;;;;;;;10.80;2.37;;;8.20;99.90;;;;;;5022571;28;21903;-63
2023/05/16 04:45:46;;;;;;;6.43;1.70;;;8.20;99.90;;;;;;5002391;28;20205;-63
2023/05/16 04:48:14;;;;;;;6.80;1.70;;;8.20;99.90;;;;;;5015167;28;20382;-63
2023/05/16 04:50:40;;;;;;;9.80;2.13;;;8.20;99.90;;;;;;5030283;28;20853;-63
2023/05/16 04:53:07;;;;;;;8.63;2.20;;;8.20;99.90;;;;;;5021824;28;20504;-63
2023/05/16 04:55:34;;;;;;;13.57;1.70;;;8.20;99.90;;;;;;5030443;28;22178;-64
2023/05/16 04:58:01;;;;;;;7.67;2.27;;;8.30;99.90;;;;;;5022401;28;20674;-64
2023/05/16 05:00:28;;;;;;;5.87;2.30;;;8.30;99.90;;;;;;5027379;28;20216;-63
2023/05/16 05:02:55;;;;;;;11.67;1.93;;;8.40;99.90;;;;;;4986639;28;20229;-63
2023/05/16 05:05:23;;;;;;;12.63;2.53;;;8.40;99.90;;;;;;5029894;28;20401;-63
2023/05/16 05:07:50;;;;;;;6.37;1.70;;;8.40;99.90;;;;;;5029250;28;20224;-63
2023/05/16 05:10:17;;;;;;;6.77;1.77;;;8.50;99.90;;;;;;5020612;28;20212;-63
2023/05/16 05:12:44;;;;;;;8.17;1.90;;;8.50;99.90;;;;;;5031853;28;20215;-63
2023/05/16 05:15:11;;;;;;;7.70;1.70;;;8.60;99.90;;;;;;5031916;28;20232;-63
2023/05/16 05:17:37;;;;;;;7.20;1.90;;;8.60;99.90;;;;;;5000913;28;20209;-64
2023/05/16 05:20:07;;;;;;;19.73;2.63;;;8.60;99.90;;;;;;5020444;28;20203;-63
2023/05/16 05:22:35;;;;;;;7.23;1.53;;;8.60;99.90;;;;;;5011091;28;21319;-64
2023/05/16 05:25:02;;;;;;;6.37;2.03;;;8.70;99.90;;;;;;5021415;28;20201;-63
2023/05/16 05:27:30;;;;;;;10.67;2.20;;;8.70;99.90;;;;;;5024160;28;20228;-63
2023/05/16 05:29:57;;;;;;;6.53;1.67;;;8.70;99.90;;;;;;5030163;28;20228;-63
2023/05/16 05:32:24;;;;;;;8.00;1.97;;;8.80;99.90;;;;;;5005920;28;20219;-63
2023/05/16 05:34:51;;;;;;;10.70;2.07;;;8.80;99.90;;;;;;5038573;28;20239;-63
2023/05/16 05:37:18;;;;;;;8.17;2.33;;;8.90;99.90;;;;;;5037456;28;20200;-63
2023/05/16 05:39:46;;;;;;;7.90;1.77;;;8.90;99.90;;;;;;5039147;28;20197;-63
2023/05/16 05:42:13;;;;;;;13.13;1.90;;;8.90;99.90;;;;;;5030683;28;20205;-63
2023/05/16 05:44:40;;;;;;;9.03;1.50;;;9.00;99.90;;;;;;5035214;28;20212;-63
2023/05/16 05:47:07;;;;;;;7.83;1.83;;;9.00;99.90;;;;;;5044586;28;20217;-63
2023/05/16 05:49:34;;;;;;;25.43;2.67;;;9.10;99.90;;;;;;5009237;28;20437;-63
2023/05/16 05:52:01;;;;;;;11.60;2.43;;;9.10;99.90;;;;;;5045315;28;20224;-63
2023/05/16 05:54:29;;;;;;;11.57;2.20;;;9.00;99.90;;;;;;5049546;28;20405;-63
2023/05/16 05:56:57;;;;;;;6.57;1.47;;;9.00;99.90;;;;;;5032688;28;20206;-63
2023/05/16 05:59:24;;;;;;;5.60;2.10;;;9.10;99.90;;;;;;5027867;28;20415;-63
2023/05/16 06:01:51;;;;;;;7.87;1.67;;;9.20;99.90;;;;;;5047126;28;20194;-63
2023/05/16 06:04:18;;;;;;;7.87;2.07;;;9.30;99.90;;;;;;4998218;28;20339;-63
2023/05/16 06:06:54;;;;;;;14.70;2.37;;;9.30;99.90;;;;;;5008044;28;20247;-63
2023/05/16 06:09:21;;;;;;;8.93;1.70;;;9.40;99.90;;;;;;5007354;28;20228;-63
2023/05/16 06:11:48;;;;;;;10.20;1.60;;;9.40;99.90;;;;;;5024071;28;21058;-63
2023/05/16 06:14:16;;;;;;;13.90;2.33;;;9.50;99.90;;;;;;5048500;28;20200;-63
2023/05/16 06:16:43;;;;;;;6.57;1.83;;;9.50;99.90;;;;;;5031608;28;20584;-64
2023/05/16 06:19:11;;;;;;;10.20;1.73;;;9.50;99.90;;;;;;5017968;28;20213;-63
2023/05/16 06:21:38;;;;;;;7.63;1.63;;;9.50;99.90;;;;;;5038653;28;20197;-63
2023/05/16 06:24:05;;;;;;;7.37;1.60;;;9.60;99.90;;;;;;5028301;28;20529;-63
2023/05/16 06:26:33;;;;;;;7.57;1.97;;;9.60;99.90;;;;;;5037045;28;20228;-63
2023/05/16 06:29:00;;;;;;;9.87;1.80;;;9.70;99.90;;;;;;5031349;28;20695;-63
2023/05/16 06:31:28;;;;;;;5.00;1.83;;;9.80;99.90;;;;;;5033170;28;20216;-63
2023/05/16 06:33:55;;;;;;;12.43;2.10;;;9.80;99.90;;;;;;5023742;28;20599;-64
2023/05/16 06:36:22;;;;;;;13.47;2.13;;;9.70;99.90;;;;;;5034753;28;20800;-63
2023/05/16 06:38:49;;;;;;;8.40;2.10;;;9.70;99.90;;;;;;5049300;28;20205;-63
2023/05/16 06:41:16;;;;;;;5.07;2.03;;;9.80;99.90;;;;;;5032109;28;20613;-63
2023/05/16 06:43:43;;;;;;;6.40;1.60;;;10.00;99.90;;;;;;5032081;28;20580;-64
2023/05/16 06:46:10;;;;;;;7.90;1.87;;;10.10;99.90;;;;;;5031641;28;21104;-63
2023/05/16 06:48:38;;;;;;;11.37;2.93;;;10.10;99.90;;;;;;5044160;28;20204;-63
2023/05/16 06:51:05;;;;;;;8.80;1.75;;;10.10;99.90;;;;;;5010133;28;20213;-64
2023/05/16 06:53:32;;;;;;;5.88;1.42;;;10.20;99.90;;;;;;5024435;28;20813;-63
2023/05/16 06:55:58;;;;;;;9.02;2.10;;;10.30;99.90;;;;;;5041082;28;22046;-63
2023/05/16 06:58:26;;;;;;;6.27;1.37;;;10.40;99.90;;;;;;5037451;28;20204;-63
2023/05/16 07:00:53;;;;;;;4.27;1.37;;;10.40;99.90;;;;;;5028646;28;20201;-63
2023/05/16 07:03:20;;;;;;;3.35;1.20;;;10.40;99.90;;;;;;5018781;28;22540;-63
2023/05/16 07:05:50;;;;;;;8.60;1.73;;;10.20;99.90;;;;;;5007775;28;20733;-63
2023/05/16 07:08:17;;;;;;;7.10;1.93;;;10.10;99.90;;;;;;5017890;28;20233;-63
2023/05/16 07:10:43;;;;;;;10.67;1.50;;;10.10;99.90;;;;;;5037154;28;20193;-63
2023/05/16 07:13:10;;;;;;;10.50;2.17;;;10.10;99.90;;;;;;5030162;28;20275;-63
2023/05/16 07:15:37;;;;;;;7.10;1.77;;;10.20;99.90;;;;;;5024707;28;20470;-63
2023/05/16 07:18:04;;;;;;;8.07;1.75;;;10.30;99.90;;;;;;5019843;28;20231;-63
2023/05/16 07:20:31;;;;;;;7.93;1.43;;;10.50;99.90;;;;;;5023544;28;20232;-63
2023/05/16 07:22:59;;;;;;;3.90;0.90;;;10.30;99.90;;;;;;4995695;28;20229;-63
2023/05/16 07:25:26;;;;;;;4.18;1.40;;;10.20;99.90;;;;;;5044428;28;20213;-63
2023/05/16 07:27:53;;;;;;;4.65;1.35;;;10.30;99.90;;;;;;5040196;28;20651;-63
2023/05/16 07:30:20;;;;;;;7.20;1.30;;;10.40;99.90;;;;;;5019658;28;20358;-63
2023/05/16 07:32:47;;;;;;;6.80;1.42;;;10.50;99.90;;;;;;4990335;28;20263;-63
2023/05/16 07:35:14;;;;;;;7.18;1.80;;;10.50;99.90;;;;;;5026529;28;20240;-63
2023/05/16 07:37:42;;;;;;;9.52;1.85;;;10.50;99.90;;;;;;4999412;28;20428;-63
2023/05/16 07:40:11;;;;;;;3.22;1.40;;;10.60;99.90;;;;;;5033468;28;20247;-63
2023/05/16 07:42:38;;;;;;;7.45;1.30;;;10.70;99.90;;;;;;5015422;28;20201;-63
2023/05/16 07:45:07;;;;;;;0.98;0.70;;;10.50;99.90;;;;;;5023539;28;20637;-63
2023/05/16 07:47:33;;;;;;;1.00;0.90;;;10.40;99.90;;;;;;5031855;28;20393;-63
2023/05/16 07:50:00;;;;;;;1.50;0.70;;;10.60;99.90;;;;;;5019674;28;22591;-63
2023/05/16 07:52:27;;;;;;;4.80;1.03;;;10.40;99.90;;;;;;5046731;28;20298;-63
2023/05/16 07:54:54;;;;;;;4.97;1.47;;;10.30;99.90;;;;;;4980854;28;20414;-63
2023/05/16 07:57:22;;;;;;;2.72;1.13;;;10.10;99.90;;;;;;5018216;28;21053;-63
2023/05/16 07:59:51;;;;;;;3.50;1.30;;;10.20;99.90;;;;;;5029201;28;20225;-63
2023/05/16 08:02:18;;;;;;;4.90;1.50;;;10.40;99.90;;;;;;5016317;28;20213;-64
2023/05/16 08:04:45;;;;;;;2.80;1.20;;;10.60;99.90;;;;;;5022416;28;20220;-63
2023/05/16 08:07:12;;;;;;;8.82;1.60;;;10.70;99.90;;;;;;5031994;28;20220;-63
2023/05/16 08:09:38;;;;;;;5.80;2.33;;;10.80;99.90;;;;;;5001334;28;20206;-63
2023/05/16 08:12:06;;;;;;;4.85;1.30;;;11.00;99.90;;;;;;5031130;28;20213;-64
2023/05/16 08:14:35;;;;;;;3.63;1.15;;;11.10;99.90;;;;;;5039104;28;20204;-63
2023/05/16 08:17:02;;;;;;;10.77;1.70;;;11.10;99.90;;;;;;5031938;28;20203;-64
2023/05/16 08:19:29;;;;;;;5.57;1.55;;;11.20;99.90;;;;;;5035185;28;22384;-64
2023/05/16 08:21:56;;;;;;;5.78;1.13;;;11.30;99.90;;;;;;5035256;28;20201;-63
2023/05/16 08:24:23;;;;;;;5.32;1.55;;;11.30;99.90;;;;;;5008409;28;20229;-63
2023/05/16 08:26:50;;;;;;;7.97;2.17;;;11.40;99.90;;;;;;5042349;28;20583;-63
2023/05/16 08:29:17;;;;;;;5.43;1.48;;;11.50;99.90;;;;;;5031200;28;20565;-63
2023/05/16 08:31:45;;;;;;;9.73;1.88;;;11.60;99.90;;;;;;5030609;28;20208;-63
2023/05/16 08:34:12;;;;;;;4.55;1.23;;;11.70;99.90;;;;;;5031470;28;20203;-63
2023/05/16 08:36:38;;;;;;;4.65;1.70;;;11.50;99.90;;;;;;5044096;28;20200;-63
2023/05/16 08:39:06;;;;;;;6.45;1.55;;;11.50;99.90;;;;;;5028444;28;20205;-63
2023/05/16 08:41:33;;;;;;;5.95;1.48;;;11.60;99.90;;;;;;5009739;28;20299;-63
2023/05/16 08:44:00;;;;;;;6.15;1.17;;;11.50;99.90;;;;;;5029025;28;20208;-63
2023/05/16 08:46:28;;;;;;;5.68;1.65;;;11.50;99.90;;;;;;5041066;28;20315;-64
2023/05/16 08:49:00;;;;;;;6.13;1.40;;;11.50;99.90;;;;;;5030478;28;20242;-63
2023/05/16 08:51:33;;;;;;;7.65;1.50;;;11.50;99.90;;;;;;5029195;28;20322;-62
2023/05/16 08:54:04;;;;;;;6.13;1.63;;;11.50;99.90;;;;;;5031896;28;20208;-63
2023/05/16 08:56:32;;;;;;;2.72;1.00;;;11.60;99.90;;;;;;5011240;28;20733;-63
2023/05/16 08:58:59;;;;;;;8.60;1.80;;;11.70;99.90;;;;;;5037364;28;20560;-63
2023/05/16 09:01:26;;;;;;;6.60;2.03;;;11.70;99.90;;;;;;5031990;28;20331;-63
2023/05/16 09:03:53;;;;;;;4.70;1.60;;;11.50;99.90;;;;;;5025928;28;20208;-63
2023/05/16 09:06:21;;;;;;;6.50;1.30;;;11.40;99.90;;;;;;5034825;28;20197;-64
2023/05/16 09:08:48;;;;;;;13.13;2.15;;;11.50;99.90;;;;;;5043971;28;20583;-64
2023/05/16 09:11:15;;;;;;;6.68;1.60;;;11.60;99.90;;;;;;4979046;28;20530;-63
2023/05/16 09:13:42;;;;;;;11.52;2.05;;;11.60;99.90;;;;;;5033502;28;20579;-63
2023/05/16 09:16:10;;;;;;;7.53;1.40;;;11.40;99.90;;;;;;5000666;28;20204;-63
2023/05/16 09:18:37;;;;;;;2.70;1.40;;;11.20;99.90;;;;;;5028900;28;20202;-63
2023/05/16 09:21:06;;;;;;;6.82;1.20;;;11.30;99.90;;;;;;5035544;28;20671;-64
2023/05/16 09:23:34;;;;;;;6.20;1.65;;;11.60;99.90;;;;;;5042107;28;20243;-63
2023/05/16 09:26:02;;;;;;;9.13;1.75;;;11.80;99.90;;;;;;5033576;28;20205;-63
2023/05/16 09:28:30;;;;;;;4.05;1.42;;;11.70;99.90;;;;;;5005744;28;20251;-64
2023/05/16 09:30:58;;;;;;;4.93;1.73;;;11.50;99.90;;;;;;5012832;28;20197;-63
2023/05/16 09:33:26;;;;;;;4.25;1.33;;;11.30;99.90;;;;;;5037023;28;20425;-63
2023/05/16 09:35:58;;;;;;;15.23;2.00;;;11.00;99.90;;;;;;5032653;28;20200;-63
2023/05/16 09:38:25;;;;;;;5.97;1.55;;;10.20;99.90;;;;;;5027598;28;20516;-63
2023/05/16 09:40:54;;;;;;;10.23;1.92;;;9.90;99.90;;;;;;5035298;28;20242;-63
2023/05/16 09:43:26;;;;;;;6.03;1.33;;;9.70;99.90;;;;;;5012505;28;20245;-63
2023/05/16 09:45:54;;;;;;;5.07;2.03;;;9.60;99.90;;;;;;5017557;28;20230;-64
2023/05/16 09:48:22;;;;;;;3.10;1.27;;;9.60;99.90;;;;;;5030484;28;20233;-64
2023/05/16 09:50:51;;;;;;;5.47;1.50;;;9.70;99.90;;;;;;5027720;28;20812;-64
2023/05/16 09:53:18;;;;;;;3.70;1.17;;;9.70;99.90;;;;;;5035404;28;20288;-64
2023/05/16 09:55:45;;;;;;;2.77;0.83;;;9.70;99.90;;;;;;5045925;28;20347;-64
2023/05/16 09:58:17;;;;;;;4.20;1.10;;;9.70;99.90;;;;;;5037356;28;20205;-64
2023/05/16 10:00:45;;;;;;;2.72;1.27;;;9.70;99.90;;;;;;5003499;28;20579;-64
2023/05/16 10:03:13;;;;;;;1.73;1.20;;;9.80;99.90;;;;;;5045296;28;20193;-64
2023/05/16 10:05:40;;;;;;;3.25;1.27;;;10.10;99.90;;;;;;5031151;28;20227;-64
2023/05/16 10:08:07;;;;;;;2.47;1.10;;;10.40;99.90;;;;;;5039877;28;20224;-64
2023/05/16 10:10:38;;;;;;;5.93;2.08;;;10.70;99.90;;;;;;5037492;28;20213;-64
2023/05/16 10:13:06;;;;;;;6.00;1.50;;;11.20;99.90;;;;;;5029064;28;20679;-64
2023/05/16 10:15:37;;;;;;;4.68;1.65;;;11.20;99.90;;;;;;5007052;28;20202;-64
2023/05/16 10:18:10;;;;;;;3.83;1.45;;;10.60;99.90;;;;;;5033306;28;20221;-64
2023/05/16 10:20:38;;;;;;;8.82;1.25;;;10.10;99.90;;;;;;5025986;28;20203;-64
2023/05/16 10:23:06;;;;;;;5.10;1.77;;;9.90;99.90;;;;;;5026752;28;20326;-64
2023/05/16 10:25:36;;;;;;;10.30;3.07;;;9.80;99.90;;;;;;5031949;28;20693;-64
2023/05/16 10:28:03;;;;;;;7.00;1.27;;;9.80;99.90;;;;;;5024360;28;20229;-64
2023/05/16 10:30:33;;;;;;;4.83;1.43;;;9.70;99.90;;;;;;5015095;28;20208;-63
2023/05/16 10:33:02;;;;;;;6.00;1.33;;;9.80;99.90;;;;;;5025630;28;20194;-64
2023/05/16 10:35:28;;;;;;;4.83;1.50;;;10.10;99.90;;;;;;5030644;28;20204;-64
2023/05/16 10:37:56;;;;;;;3.50;1.13;;;10.30;99.90;;;;;;5033650;28;20286;-64
2023/05/16 10:40:24;;;;;;;5.03;1.60;;;10.50;99.90;;;;;;5011066;28;20208;-64
2023/05/16 10:42:57;;;;;;;0.95;0.85;;;10.70;99.90;;;;;;5024118;28;20224;-65
2023/05/16 10:45:24;;;;;;;2.35;0.98;;;10.80;99.90;;;;;;5005393;28;20219;-64
2023/05/16 10:47:52;;;;;;;2.88;1.48;;;10.80;99.90;;;;;;5020464;28;21357;-66
2023/05/16 10:50:34;;;;;;;1.30;0.88;;;11.10;99.90;;;;;;5044134;28;21154;-64
2023/05/16 10:53:20;;;;;;;1.20;1.00;;;11.10;99.90;;;;;;5015905;28;20212;-64
2023/05/16 10:56:04;;;;;;;4.03;1.40;;;11.40;99.90;;;;;;5037717;28;20552;-63
2023/05/16 10:58:43;;;;;;;1.77;1.00;;;11.40;99.90;;;;;;5006380;28;20349;-63
2023/05/16 11:01:21;;;;;;;2.47;1.27;;;11.50;99.90;;;;;;5002711;28;20235;-64
2023/05/16 11:04:09;;;;;;;2.67;0.82;;;11.70;99.90;;;;;;5005937;28;20246;-64
2023/05/16 11:06:50;;;;;;;1.23;0.85;;;11.70;99.90;;;;;;4997487;28;21780;-64
2023/05/16 11:09:22;;;;;;;6.35;1.40;;;11.80;99.90;;;;;;5016322;28;20235;-64
2023/05/16 11:12:05;;;;;;;2.92;1.10;;;11.90;99.90;;;;;;4999979;28;20204;-64
2023/05/16 11:14:37;;;;;;;2.65;1.10;;;12.00;99.90;;;;;;5021901;28;20249;-64
2023/05/16 11:17:08;;;;;;;1.17;0.85;;;12.10;99.90;;;;;;4999798;28;20201;-64
2023/05/16 11:19:39;;;;;;;0.82;0.80;;;11.60;99.90;;;;;;5020837;28;20201;-63
2023/05/16 11:22:09;;;;;;;4.65;1.20;;;11.50;99.90;;;;;;5017408;28;20449;-63
2023/05/16 11:24:37;;;;;;;1.23;1.00;;;11.40;99.90;;;;;;5023436;28;20224;-64
2023/05/16 11:27:05;;;;;;;6.07;1.10;;;11.50;99.90;;;;;;5020699;28;20389;-63
2023/05/16 11:29:33;;;;;;;2.83;1.30;;;11.40;99.90;;;;;;5017192;28;20486;-64
2023/05/16 11:32:02;;;;;;;4.20;0.85;;;11.50;99.90;;;;;;4994343;28;20211;-64
2023/05/16 11:34:30;;;;;;;5.93;1.38;;;11.60;99.90;;;;;;4993548;28;20859;-63
2023/05/16 11:36:57;;;;;;;4.53;1.52;;;11.50;99.90;;;;;;5034327;28;20421;-64
2023/05/16 11:39:25;;;;;;;7.90;1.40;;;11.40;99.90;;;;;;5010509;28;20307;-63
2023/05/16 11:41:53;;;;;;;6.05;1.63;;;11.40;99.90;;;;;;5014884;28;20216;-64
2023/05/16 11:44:19;;;;;;;8.82;1.98;;;11.40;99.90;;;;;;5016910;28;20232;-63
2023/05/16 11:46:46;;;;;;;6.18;2.03;;;11.50;99.90;;;;;;5026710;28;20208;-63
2023/05/16 11:49:13;;;;;;;7.68;1.67;;;11.70;99.90;;;;;;4998039;28;20247;-63
2023/05/16 11:51:41;;;;;;;4.75;1.52;;;11.80;99.90;;;;;;5032345;28;20228;-63
2023/05/16 11:54:10;;;;;;;5.82;1.48;;;12.00;99.90;;;;;;5022630;28;20233;-63
2023/05/16 11:56:39;;;;;;;6.28;2.03;;;12.10;99.90;;;;;;5004267;28;20270;-63
2023/05/16 11:59:06;;;;;;;6.35;1.35;;;12.40;99.90;;;;;;5021722;28;20220;-63
2023/05/16 12:01:34;;;;;;;9.52;1.92;;;12.40;99.90;;;;;;5020725;28;20208;-64
2023/05/16 12:04:01;;;;;;;12.73;1.70;;;12.20;99.90;;;;;;4994322;28;20406;-64
2023/05/16 12:06:30;;;;;;;5.57;2.25;;;12.00;99.90;;;;;;5020173;28;20204;-63
2023/05/16 12:08:56;;;;;;;7.75;1.60;;;11.90;99.90;;;;;;5024029;28;20726;-64
2023/05/16 12:11:23;;;;;;;4.97;2.55;;;11.80;99.90;;;;;;5024233;28;20209;-63
2023/05/16 12:13:52;;;;;;;5.25;2.00;;;11.90;99.90;;;;;;5017702;28;20201;-63
2023/05/16 12:16:20;;;;;;;4.28;1.33;;;12.10;99.90;;;;;;5025316;28;20585;-64
2023/05/16 12:18:48;;;;;;;8.70;1.67;;;12.30;99.90;;;;;;5002444;28;20285;-63
2023/05/16 12:21:16;;;;;;;5.45;1.80;;;12.30;99.90;;;;;;5017645;28;20682;-63
2023/05/16 12:23:43;;;;;;;4.93;1.30;;;12.20;99.90;;;;;;5038150;28;20573;-63
2023/05/16 12:26:10;;;;;;;7.35;1.83;;;12.10;99.90;;;;;;5012012;28;20744;-63
2023/05/16 12:28:38;;;;;;;9.10;1.85;;;12.00;99.90;;;;;;5000729;28;20245;-63
2023/05/16 12:31:18;;;;;;;6.45;1.48;;;11.80;99.90;;;;;;5015772;28;20219;-63
2023/05/16 12:33:45;;;;;;;6.20;0.98;;;11.90;99.90;;;;;;4999608;28;20212;-63
2023/05/16 12:36:14;;;;;;;6.07;1.58;;;12.20;99.90;;;;;;5009066;28;20211;-64
2023/05/16 12:38:42;;;;;;;5.63;1.35;;;12.20;99.90;;;;;;5038524;28;20251;-64
2023/05/16 12:41:09;;;;;;;5.80;2.15;;;12.10;99.90;;;;;;5013158;28;20196;-64
2023/05/16 12:43:35;;;;;;;7.55;1.50;;;12.00;99.90;;;;;;5039802;28;20209;-63
2023/05/16 12:46:02;;;;;;;5.05;1.67;;;12.00;99.90;;;;;;5012700;28;20216;-64
2023/05/16 12:48:34;;;;;;;8.70;2.25;;;12.00;99.90;;;;;;5037614;28;20600;-63
2023/05/16 12:51:12;;;;;;;9.02;1.50;;;12.10;99.90;;;;;;5010374;28;20581;-64
2023/05/16 12:53:42;;;;;;;5.68;1.42;;;12.40;99.90;;;;;;5019585;28;20590;-63